createdAt,value
2019-03-13T00:01:12.915Z,99.90
2019-03-13T00:03:42.571Z,99.90
2019-03-13T00:06:12.887Z,99.90
2019-03-13T00:08:43.622Z,99.90
2019-03-13T00:11:13.346Z,99.90
2019-03-13T00:13:42.947Z,99.90
2019-03-13T00:16:12.645Z,99.90
2019-03-13T00:18:42.311Z,99.90
2019-03-13T00:21:11.945Z,99.90
2019-03-13T00:23:41.594Z,99.90
2019-03-13T00:26:11.273Z,99.90
2019-03-13T00:28:40.984Z,99.90
2019-03-13T00:31:11.318Z,99.90
2019-03-13T00:33:41.323Z,99.90
2019-03-13T00:36:11.095Z,99.90
2019-03-13T00:38:40.779Z,99.90
2019-03-13T00:41:10.517Z,99.90
2019-03-13T00:43:40.071Z,99.90
2019-03-13T00:46:09.667Z,99.90
2019-03-13T00:48:39.837Z,99.90
2019-03-13T00:51:09.536Z,99.90
2019-03-13T00:53:39.233Z,99.90
2019-03-13T00:56:08.828Z,99.90
2019-03-13T00:58:38.453Z,99.90
2019-03-13T01:01:24.631Z,99.90
2019-03-13T01:04:19.143Z,99.90
2019-03-13T01:06:52.653Z,99.90
2019-03-13T01:09:22.464Z,99.90
2019-03-13T01:11:52.092Z,99.90
2019-03-13T01:14:21.869Z,99.90
2019-03-13T01:16:51.686Z,99.90
2019-03-13T01:19:21.400Z,99.90
2019-03-13T01:21:51.075Z,99.90
2019-03-13T01:24:20.802Z,99.90
2019-03-13T01:26:50.469Z,99.90
2019-03-13T01:29:20.094Z,99.90
2019-03-13T01:32:08.880Z,99.90
2019-03-13T01:34:42.320Z,99.90
2019-03-13T01:37:12.598Z,99.90
2019-03-13T01:39:42.229Z,99.90
2019-03-13T01:42:11.948Z,99.90
2019-03-13T01:44:42.031Z,99.90
2019-03-13T01:47:11.634Z,1.00
2019-03-13T01:49:41.823Z,1.00
2019-03-13T01:52:11.875Z,1.00
2019-03-13T01:54:41.772Z,1.00
2019-03-13T01:57:11.771Z,99.90
2019-03-13T01:59:41.446Z,1.00
2019-03-13T02:02:11.022Z,1.00
2019-03-13T02:04:40.765Z,1.00
2019-03-13T02:07:10.687Z,1.00
2019-03-13T02:09:40.359Z,1.00
2019-03-13T02:12:10.098Z,1.00
2019-03-13T02:14:39.892Z,1.00
2019-03-13T02:17:09.875Z,1.00
2019-03-13T02:19:39.979Z,1.00
2019-03-13T02:22:10.187Z,1.00
2019-03-13T02:24:39.925Z,1.00
2019-03-13T02:27:10.008Z,1.00
2019-03-13T02:29:39.743Z,1.00
2019-03-13T02:32:10.345Z,1.00
2019-03-13T02:34:40.682Z,1.00
2019-03-13T02:37:10.443Z,1.00
2019-03-13T02:39:40.150Z,1.00
2019-03-13T02:42:09.997Z,1.00
2019-03-13T02:44:40.464Z,1.00
2019-03-13T02:47:10.151Z,1.00
2019-03-13T02:49:39.955Z,1.00
2019-03-13T02:52:09.752Z,1.00
2019-03-13T02:54:39.397Z,1.00
2019-03-13T02:57:09.423Z,1.00
2019-03-13T02:59:39.124Z,1.00
2019-03-13T03:02:24.482Z,1.00
2019-03-13T03:04:54.175Z,4.50
2019-03-13T03:07:23.945Z,1.00
2019-03-13T03:09:53.648Z,1.00
2019-03-13T03:12:23.366Z,1.00
2019-03-13T03:15:18.685Z,1.00
2019-03-13T03:17:49.178Z,1.00
2019-03-13T03:20:20.051Z,1.00
2019-03-13T03:22:50.266Z,1.00
2019-03-13T03:25:19.978Z,1.00
2019-03-13T03:27:49.691Z,1.00
2019-03-13T03:30:21.629Z,1.00
2019-03-13T03:32:51.652Z,1.00
2019-03-13T03:35:21.803Z,1.00
2019-03-13T03:37:51.976Z,1.00
2019-03-13T03:40:23.306Z,1.00
2019-03-13T03:42:53.043Z,1.00
2019-03-13T03:45:23.033Z,1.00
2019-03-13T03:47:52.732Z,1.00
2019-03-13T03:50:23.019Z,1.00
2019-03-13T03:52:52.872Z,1.00
2019-03-13T03:55:22.553Z,1.00
2019-03-13T03:57:52.323Z,1.00
2019-03-13T04:00:22.196Z,1.00
2019-03-13T04:02:52.274Z,1.00
2019-03-13T04:05:22.244Z,1.00
2019-03-13T04:07:51.926Z,1.00
2019-03-13T04:10:21.842Z,1.00
2019-03-13T04:12:51.783Z,1.00
2019-03-13T04:15:21.463Z,1.00
2019-03-13T04:17:51.305Z,1.00
2019-03-13T04:20:21.214Z,1.00
2019-03-13T04:22:51.021Z,1.00
2019-03-13T04:25:36.868Z,1.00
2019-03-13T04:28:07.480Z,1.00
2019-03-13T04:30:37.647Z,1.00
2019-03-13T04:33:07.810Z,99.90
2019-03-13T04:35:37.589Z,99.90
2019-03-13T04:38:07.335Z,99.90
2019-03-13T04:40:37.567Z,99.90
2019-03-13T04:43:07.397Z,1.00
2019-03-13T04:45:37.235Z,1.00
2019-03-13T04:48:06.845Z,1.00
2019-03-13T04:50:36.514Z,1.00
2019-03-13T04:53:06.128Z,1.00
2019-03-13T04:55:35.741Z,99.90
2019-03-13T04:58:05.377Z,99.90
2019-03-13T05:00:39.320Z,99.90
2019-03-13T05:03:09.603Z,99.90
2019-03-13T05:05:43.063Z,99.90
2019-03-13T05:08:14.913Z,1.00
2019-03-13T05:10:44.719Z,1.00
2019-03-13T05:13:14.610Z,1.00
2019-03-13T05:15:44.223Z,99.90
2019-03-13T05:18:13.899Z,99.90
2019-03-13T05:20:43.644Z,99.90
2019-03-13T05:23:13.213Z,99.90
2019-03-13T05:25:42.974Z,99.90
2019-03-13T05:28:12.678Z,1.00
2019-03-13T05:30:42.276Z,1.00
2019-03-13T05:33:12.083Z,99.90
2019-03-13T05:35:41.811Z,1.00
2019-03-13T05:38:11.599Z,1.00
2019-03-13T05:40:41.282Z,99.90
2019-03-13T05:43:10.916Z,99.90
2019-03-13T05:45:40.557Z,99.90
2019-03-13T05:48:10.209Z,99.90
2019-03-13T05:50:40.101Z,99.90
2019-03-13T05:53:09.768Z,1.00
2019-03-13T05:55:39.450Z,1.00
2019-03-13T05:58:09.227Z,1.00
2019-03-13T06:00:38.811Z,1.00
2019-03-13T06:03:08.460Z,1.60
2019-03-13T06:05:38.939Z,1.00
2019-03-13T06:08:14.417Z,1.00
2019-03-13T06:10:44.213Z,1.00
2019-03-13T06:13:14.073Z,99.90
2019-03-13T06:15:44.707Z,1.00
2019-03-13T06:18:14.561Z,99.90
2019-03-13T06:20:44.298Z,99.90
2019-03-13T06:23:13.962Z,1.00
2019-03-13T06:25:44.140Z,99.90
2019-03-13T06:28:14.174Z,1.00
2019-03-13T06:30:44.073Z,53.50
2019-03-13T06:33:13.815Z,1.00
2019-03-13T06:35:43.450Z,1.00
2019-03-13T06:38:30.551Z,1.00
2019-03-13T06:41:00.560Z,99.90
2019-03-13T06:43:30.390Z,20.10
2019-03-13T06:46:00.672Z,1.00
2019-03-13T06:48:30.768Z,1.00
2019-03-13T06:51:00.528Z,99.90
2019-03-13T06:53:30.366Z,1.00
2019-03-13T06:56:00.050Z,1.00
2019-03-13T06:58:49.302Z,99.90
2019-03-13T07:01:30.307Z,1.00
2019-03-13T07:04:28.363Z,1.00
2019-03-13T07:07:09.746Z,1.00
2019-03-13T07:09:55.553Z,1.00
2019-03-13T07:12:43.545Z,1.00
2019-03-13T07:16:08.138Z,99.90
2019-03-13T07:19:41.671Z,99.90
2019-03-13T07:26:51.389Z,1.00
2019-03-13T07:33:31.210Z,99.90
2019-03-13T07:37:00.045Z,99.90
2019-03-13T07:51:45.318Z,78.60
2019-03-13T07:54:32.463Z,22.20
2019-03-13T07:57:53.451Z,1.00
2019-03-13T08:15:15.948Z,1.00
2019-03-13T08:18:41.021Z,1.00
2019-03-13T09:42:05.720Z,99.90
2019-03-13T09:45:32.806Z,99.90
2019-03-13T09:48:33.997Z,99.90
2019-03-13T09:51:30.031Z,99.90
2019-03-13T09:55:04.399Z,99.90
2019-03-13T09:58:02.829Z,99.90
2019-03-13T10:01:11.657Z,99.90
2019-03-13T10:04:03.314Z,99.90
2019-03-13T10:06:40.797Z,99.90
2019-03-13T10:09:25.780Z,99.90
2019-03-13T10:12:16.996Z,99.90
2019-03-13T10:15:08.495Z,99.90
2019-03-13T10:17:56.927Z,99.90
2019-03-13T10:20:45.449Z,99.90
2019-03-13T10:23:33.946Z,99.90
2019-03-13T10:26:25.386Z,99.90
2019-03-13T10:29:12.639Z,99.90
2019-03-13T10:31:47.984Z,99.90
2019-03-13T10:34:34.044Z,99.90
2019-03-13T10:37:12.440Z,99.90
2019-03-13T10:40:15.863Z,99.90
2019-03-13T10:43:06.524Z,99.90
2019-03-13T10:45:42.491Z,99.90
2019-03-13T10:48:31.125Z,99.90
2019-03-13T10:51:19.711Z,99.90
2019-03-13T10:54:04.491Z,99.90
2019-03-13T10:57:02.298Z,99.90
2019-03-13T10:59:50.839Z,99.90
2019-03-13T11:02:39.446Z,99.90
2019-03-13T11:05:26.472Z,99.90
2019-03-13T11:08:11.469Z,99.90
2019-03-13T11:11:00.363Z,99.90
2019-03-13T11:13:43.264Z,99.90
2019-03-13T11:16:31.786Z,99.90
2019-03-13T11:19:23.645Z,99.90
2019-03-13T11:22:02.548Z,99.90
2019-03-13T11:24:51.123Z,99.90
2019-03-13T11:27:42.730Z,99.90
2019-03-13T11:30:44.010Z,99.90
2019-03-13T11:33:47.509Z,99.90
2019-03-13T11:36:29.780Z,99.90
2019-03-13T11:39:22.136Z,99.90
2019-03-13T11:42:11.013Z,99.90
2019-03-13T11:44:59.187Z,99.90
2019-03-13T11:47:42.261Z,99.90
2019-03-13T11:50:20.333Z,99.90
2019-03-13T11:53:09.844Z,99.90
2019-03-13T11:56:07.651Z,99.90
2019-03-13T11:58:56.611Z,99.90
2019-03-13T12:01:47.901Z,99.90
2019-03-13T12:04:44.161Z,99.90
2019-03-13T12:07:31.814Z,99.90
2019-03-13T12:10:10.724Z,99.90
2019-03-13T12:12:50.902Z,99.90
2019-03-13T12:15:48.591Z,99.90
2019-03-13T12:18:35.666Z,99.90
2019-03-13T12:21:22.728Z,99.90
2019-03-13T12:24:14.526Z,99.90
2019-03-13T12:27:01.726Z,99.90
2019-03-13T12:29:50.340Z,99.90
2019-03-13T12:32:41.695Z,99.90
2019-03-13T12:35:33.140Z,99.90
2019-03-13T12:38:24.798Z,99.90
2019-03-13T12:41:04.337Z,99.90
2019-03-13T12:43:51.896Z,99.90
2019-03-13T12:46:52.705Z,99.90
2019-03-13T12:49:50.946Z,99.90
2019-03-13T12:52:45.392Z,99.90
2019-03-13T12:55:53.091Z,99.90
2019-03-13T12:58:29.139Z,99.90
2019-03-13T13:01:16.314Z,99.90
2019-03-13T13:04:07.892Z,99.90
2019-03-13T13:06:54.908Z,99.90
2019-03-13T13:09:42.105Z,99.90
2019-03-13T13:12:33.685Z,99.90
2019-03-13T13:15:37.882Z,99.90
2019-03-13T13:18:25.033Z,99.90
2019-03-13T13:20:54.675Z,99.90
2019-03-13T13:23:24.482Z,99.90
2019-03-13T13:25:54.293Z,99.90
2019-03-13T13:28:24.568Z,99.90
2019-03-13T13:30:54.464Z,99.90
2019-03-13T13:33:25.119Z,99.90
2019-03-13T13:35:54.856Z,99.90
2019-03-13T13:38:24.504Z,99.90
2019-03-13T13:40:54.322Z,99.90
2019-03-13T13:43:24.070Z,99.90
2019-03-13T13:46:22.962Z,99.90
2019-03-13T13:48:52.755Z,99.90
2019-03-13T13:51:22.508Z,99.90
2019-03-13T13:53:55.753Z,99.90
2019-03-13T13:56:25.500Z,99.90
2019-03-13T13:58:55.357Z,99.90
2019-03-13T14:01:25.311Z,99.90
2019-03-13T14:03:57.580Z,99.90
2019-03-13T14:06:27.792Z,99.90
2019-03-13T14:08:57.760Z,99.90
2019-03-13T14:11:27.730Z,99.90
2019-03-13T14:13:57.776Z,99.90
2019-03-13T14:16:27.479Z,99.90
2019-03-13T14:18:57.337Z,99.90
2019-03-13T14:21:27.700Z,99.90
2019-03-13T14:23:57.395Z,99.90
2019-03-13T14:26:27.059Z,99.90
2019-03-13T14:28:56.700Z,99.90
2019-03-13T14:31:26.356Z,99.90
2019-03-13T14:33:56.036Z,99.90
2019-03-13T14:36:25.543Z,99.90
2019-03-13T14:38:55.298Z,99.90
2019-03-13T14:41:26.573Z,99.90
2019-03-13T14:43:56.488Z,99.90
2019-03-13T14:46:26.193Z,99.90
2019-03-13T14:48:55.863Z,99.90
2019-03-13T14:51:27.020Z,99.90
2019-03-13T14:53:57.510Z,99.90
2019-03-13T14:56:27.777Z,99.90
2019-03-13T14:58:58.204Z,99.90
2019-03-13T15:01:29.111Z,99.90
2019-03-13T15:03:58.898Z,99.90
2019-03-13T15:06:28.669Z,99.90
2019-03-13T15:08:58.645Z,99.90
2019-03-13T15:11:28.655Z,99.90
2019-03-13T15:13:58.465Z,99.90
2019-03-13T15:16:28.292Z,99.90
2019-03-13T15:18:58.266Z,99.90
2019-03-13T15:21:28.765Z,99.90
2019-03-13T15:23:58.541Z,99.90
2019-03-13T15:26:28.417Z,99.90
2019-03-13T15:28:58.348Z,99.90
2019-03-13T15:31:29.069Z,99.90
2019-03-13T15:33:58.770Z,99.90
2019-03-13T15:36:28.570Z,99.90
2019-03-13T15:38:58.194Z,99.90
2019-03-13T15:41:30.737Z,99.90
2019-03-13T15:44:00.417Z,99.90
2019-03-13T15:46:32.697Z,99.90
2019-03-13T15:49:01.876Z,99.90
2019-03-13T15:51:33.434Z,99.90
2019-03-13T15:54:03.380Z,99.90
2019-03-13T15:56:33.228Z,99.90
2019-03-13T15:59:03.113Z,99.90
2019-03-13T16:01:32.849Z,99.90
2019-03-13T16:04:02.670Z,99.90
2019-03-13T16:06:32.445Z,99.90
2019-03-13T16:09:02.094Z,99.90
2019-03-13T16:11:31.843Z,99.90
2019-03-13T16:14:01.641Z,99.90
2019-03-13T16:16:31.347Z,99.90
2019-03-13T16:19:00.976Z,99.90
2019-03-13T16:21:30.623Z,99.90
2019-03-13T16:24:00.267Z,99.90
2019-03-13T16:26:30.029Z,99.90
2019-03-13T16:28:59.719Z,99.90
2019-03-13T16:32:47.789Z,99.90
2019-03-13T16:34:33.284Z,99.90
2019-03-13T16:36:50.734Z,99.90
2019-03-13T16:39:21.036Z,99.90
2019-03-13T16:41:51.001Z,99.90
2019-03-13T16:44:21.139Z,99.90
2019-03-13T16:46:50.857Z,99.90
2019-03-13T16:49:20.545Z,99.90
2019-03-13T16:51:50.569Z,99.90
2019-03-13T16:54:20.176Z,99.90
2019-03-13T16:56:49.853Z,99.90
2019-03-13T16:59:19.592Z,99.90
2019-03-13T17:01:49.319Z,99.90
2019-03-13T17:04:20.726Z,99.90
2019-03-13T17:06:50.691Z,99.90
2019-03-13T17:09:20.393Z,99.90
2019-03-13T17:11:50.142Z,99.90
2019-03-13T17:14:23.129Z,1.00
2019-03-13T17:16:52.833Z,1.00
2019-03-13T17:19:22.600Z,1.00
2019-03-13T17:21:53.705Z,1.00
2019-03-13T17:24:23.398Z,1.00
2019-03-13T17:26:53.063Z,1.00
2019-03-13T17:29:22.651Z,1.00
2019-03-13T17:31:52.547Z,1.00
2019-03-13T17:34:22.364Z,1.00
2019-03-13T17:36:52.046Z,1.00
2019-03-13T17:39:21.897Z,1.00
2019-03-13T17:41:52.643Z,1.00
2019-03-13T17:44:22.707Z,1.00
2019-03-13T17:46:52.602Z,1.00
2019-03-13T17:49:50.817Z,1.00
2019-03-13T17:52:21.156Z,1.00
2019-03-13T17:54:51.407Z,1.00
2019-03-13T17:57:22.923Z,1.00
2019-03-13T17:59:53.005Z,1.00
2019-03-13T18:02:22.857Z,1.00
2019-03-13T18:04:52.724Z,1.00
2019-03-13T18:07:22.937Z,1.00
2019-03-13T18:09:53.678Z,1.00
2019-03-13T18:12:35.880Z,1.00
2019-03-13T18:15:08.832Z,1.00
2019-03-13T18:17:41.152Z,1.00
2019-03-13T18:20:12.609Z,1.00
2019-03-13T18:22:42.141Z,1.00
2019-03-13T18:25:11.830Z,99.90
2019-03-13T18:27:41.447Z,1.00
2019-03-13T18:30:16.723Z,1.00
2019-03-13T18:32:46.242Z,99.90
2019-03-13T18:35:16.211Z,99.90
2019-03-13T18:37:45.817Z,99.90
2019-03-13T18:40:15.909Z,99.90
2019-03-13T18:42:45.488Z,1.00
2019-03-13T18:45:22.651Z,99.90
2019-03-13T18:47:52.314Z,99.90
2019-03-13T18:50:22.371Z,1.00
2019-03-13T18:52:52.207Z,1.00
2019-03-13T18:55:22.434Z,1.00
2019-03-13T18:57:52.003Z,1.00
2019-03-13T19:00:29.176Z,1.00
2019-03-13T19:02:58.773Z,1.00
2019-03-13T19:05:28.774Z,14.20
2019-03-13T19:07:58.422Z,9.00
2019-03-13T19:10:28.026Z,22.70
2019-03-13T19:12:57.589Z,24.60
2019-03-13T19:15:27.566Z,20.40
2019-03-13T19:18:00.284Z,18.20
2019-03-13T19:20:28.577Z,18.00
2019-03-13T19:22:58.371Z,39.50
2019-03-13T19:25:27.947Z,39.40
2019-03-13T19:27:57.802Z,54.90
2019-03-13T19:30:28.630Z,54.90
2019-03-13T19:32:58.458Z,57.90
2019-03-13T19:35:28.035Z,39.30
2019-03-13T19:37:58.063Z,25.20
2019-03-13T19:40:27.711Z,18.80
2019-03-13T19:42:57.470Z,8.70
2019-03-13T19:45:35.547Z,6.00
2019-03-13T19:48:05.274Z,5.70
2019-03-13T19:50:34.835Z,1.00
2019-03-13T19:53:06.078Z,1.00
2019-03-13T19:55:35.767Z,1.00
2019-03-13T19:58:05.422Z,1.00
2019-03-13T20:00:35.100Z,1.00
2019-03-13T20:03:04.724Z,1.00
2019-03-13T20:05:44.714Z,1.00
2019-03-13T20:08:05.760Z,1.00
2019-03-13T20:10:35.508Z,1.00
2019-03-13T20:13:05.386Z,1.00
2019-03-13T20:15:35.104Z,1.00
2019-03-13T20:18:04.895Z,1.00
2019-03-13T20:20:34.596Z,1.00
2019-03-13T20:23:04.459Z,99.90
2019-03-13T20:25:34.222Z,99.90
2019-03-13T20:28:03.886Z,99.90
2019-03-13T20:30:33.660Z,99.90
2019-03-13T20:33:03.257Z,99.90
2019-03-13T20:35:32.917Z,99.90
2019-03-13T20:38:02.603Z,99.90
2019-03-13T20:40:32.262Z,99.90
2019-03-13T20:43:02.606Z,99.90
2019-03-13T20:45:32.669Z,99.90
2019-03-13T20:48:02.427Z,99.90
2019-03-13T20:50:37.639Z,99.90
2019-03-13T20:53:06.483Z,99.90
2019-03-13T20:55:36.205Z,99.90
2019-03-13T20:58:05.871Z,99.90
2019-03-13T21:00:35.545Z,99.90
2019-03-13T21:03:05.400Z,99.90
2019-03-13T21:05:35.103Z,99.90
2019-03-13T21:08:04.837Z,99.90
2019-03-13T21:10:34.552Z,99.90
2019-03-13T21:13:04.153Z,99.90
2019-03-13T21:15:33.771Z,1.00
2019-03-13T21:18:03.795Z,99.90
2019-03-13T21:20:33.583Z,99.90
2019-03-13T21:23:03.243Z,99.90
2019-03-13T21:25:32.919Z,99.90
2019-03-13T21:28:02.530Z,1.00
2019-03-13T21:30:32.256Z,1.00
2019-03-13T21:33:01.969Z,1.00
2019-03-13T21:35:31.535Z,1.00
2019-03-13T21:38:01.190Z,1.00
2019-03-13T21:40:32.395Z,23.60
2019-03-13T21:43:02.126Z,69.60
2019-03-13T21:45:40.994Z,86.80
2019-03-13T21:48:03.000Z,84.00
2019-03-13T21:50:32.578Z,99.90
2019-03-13T21:53:02.162Z,99.90
2019-03-13T21:55:31.736Z,99.90
2019-03-13T21:58:01.506Z,99.90
2019-03-13T22:00:31.077Z,99.90
2019-03-13T22:03:00.628Z,99.90
2019-03-13T22:05:36.291Z,99.90
2019-03-13T22:08:05.945Z,99.90
2019-03-13T22:10:35.775Z,99.90
2019-03-13T22:13:05.319Z,99.90
2019-03-13T22:15:34.894Z,99.90
2019-03-13T22:18:04.788Z,99.90
2019-03-13T22:20:34.370Z,99.90
2019-03-13T22:23:03.991Z,99.90
2019-03-13T22:25:33.573Z,99.90
2019-03-13T22:28:03.188Z,99.90
2019-03-13T22:30:32.784Z,99.90
2019-03-13T22:33:02.487Z,99.90
2019-03-13T22:35:32.127Z,99.90
2019-03-13T22:38:01.700Z,99.90
2019-03-13T22:40:31.333Z,99.90
2019-03-13T22:43:00.888Z,99.90
2019-03-13T22:45:30.460Z,99.90
2019-03-13T22:48:00.098Z,99.90
2019-03-13T22:50:29.824Z,99.90
2019-03-13T22:52:59.396Z,99.90
2019-03-13T22:55:29.056Z,99.90
2019-03-13T22:58:01.324Z,99.90
2019-03-13T23:01:06.178Z,99.90
2019-03-13T23:03:35.808Z,99.90
2019-03-13T23:06:05.588Z,99.90
2019-03-13T23:08:35.172Z,99.90
2019-03-13T23:11:05.114Z,99.90
2019-03-13T23:13:36.203Z,99.90
2019-03-13T23:16:06.031Z,99.90
2019-03-13T23:18:35.702Z,99.90
2019-03-13T23:21:05.337Z,99.90
2019-03-13T23:23:34.888Z,99.90
2019-03-13T23:26:04.482Z,99.90
2019-03-13T23:28:34.119Z,99.90
2019-03-13T23:31:03.748Z,99.90
2019-03-13T23:33:33.385Z,99.90
2019-03-13T23:36:03.039Z,99.90
2019-03-13T23:38:32.617Z,99.90
2019-03-13T23:41:02.213Z,99.90
2019-03-13T23:43:35.212Z,99.90
2019-03-13T23:46:05.494Z,99.90
2019-03-13T23:48:35.865Z,99.90
2019-03-13T23:51:06.977Z,99.90
2019-03-13T23:53:38.581Z,99.90
2019-03-13T23:56:08.849Z,99.90
2019-03-13T23:58:39.086Z,99.90
